Johann Essberger — CQKG — position and weather

sailwx.info

Track history (hours):
 
Tides and Currents Weather Stations Pressure Air Temp Water Temp Dewpoint Dewpoint Depression Visibility Wind Speed Wind Dir Waves Ship Positions

Johann Essberger

Last reported at 2017-Feb-24 07:13 UTC. Time now 2017-Feb-25 15:54 UTC.
Position N 54°33' W 000°27'.

Length 98 m; draft 7.2 m.

Type: Ship (hazmat cat B). MMSI: 255804460.

Date/timePositionNaut miles runAvg speedWind from/ knotsBaromVisibWave heightAir tempDewpointWater temp
2017-Feb-24 07:13N 54°33' W 000°27'811.6
2017-Feb-24 06:33N 54°27' W 000°17'1111.3
2017-Feb-24 05:33N 54°20' W 000°03'1110.7
2017-Feb-24 04:33N 54°12' E 000°10'10 9.9
2017-Feb-24 03:33N 54°05' E 000°22'67 9.4
2017-Feb-23 20:23N 53°10' E 001°29'6 7.2
2017-Feb-23 19:30N 53°09' E 001°39'7 5.1
2017-Feb-23 18:09N 53°07' E 001°50'97 7.6
2017-Feb-23 05:30N 51°44' E 003°13'10 9.9
2017-Feb-23 04:33N 51°37' E 003°22'1212.1
2017-Feb-23 03:33N 51°27' E 003°33'1110.8
2017-Feb-23 02:33N 51°21' E 003°48'9 9.4
2017-Feb-23 01:33N 51°23' E 004°02'10 9.7
2017-Feb-23 00:33N 51°19' E 004°16'3 3.2
2017-Feb-22 23:33N 51°16' E 004°14'1 0.0
2017-Feb-22 04:26N 51°16' E 004°13'0 0.0
2017-Feb-21 22:31N 51°16' E 004°13'2 1.6
2017-Feb-21 21:25N 51°16' E 004°16'0 0.0
2017-Feb-21 20:25N 51°16' E 004°16'0 0.0
2017-Feb-21 19:31N 51°16' E 004°16'0 0.0
2017-Feb-21 18:31N 51°16' E 004°16'0 0.0
2017-Feb-21 17:28N 51°16' E 004°16'0 0.0
2017-Feb-21 16:31N 51°16' E 004°16'0 0.0
2017-Feb-21 15:19N 51°16' E 004°16'0 0.0
2017-Feb-21 14:25N 51°16' E 004°16'0 0.0
2017-Feb-21 13:31N 51°16' E 004°16'0 0.0
2017-Feb-21 12:31N 51°16' E 004°16'0 0.0
2017-Feb-21 11:31N 51°16' E 004°16'0 0.0
2017-Feb-21 10:31N 51°16' E 004°16'0 0.0
2017-Feb-21 09:31N 51°16' E 004°16'0 0.0
2017-Feb-21 08:31N 51°16' E 004°16'0 0.0
2017-Feb-21 07:28N 51°16' E 004°16'0 0.0
2017-Feb-21 06:28N 51°16' E 004°16'0 0.0
2017-Feb-21 05:25N 51°16' E 004°16'0 0.0
2017-Feb-21 04:33N 51°16' E 004°16'0 0.0
2017-Feb-21 03:33N 51°16' E 004°16'0 0.0
2017-Feb-21 02:33N 51°16' E 004°16'0 0.0
2017-Feb-21 01:33N 51°16' E 004°16'0 0.0
2017-Feb-21 00:33N 51°16' E 004°16'0 0.0
2017-Feb-20 13:29N 51°16' E 004°16'0 0.0
2017-Feb-20 12:05N 51°16' E 004°16'0 0.0
2017-Feb-19 06:33N 51°16' E 004°16'1 0.8
2017-Feb-19 05:33N 51°16' E 004°15'1 0.6
2017-Feb-19 04:33N 51°17' E 004°15'7 7.3
2017-Feb-19 03:32N 51°24' E 004°12'8 8.6
2017-Feb-19 02:33N 51°26' E 003°59'9 8.8
2017-Feb-19 01:33N 51°21' E 003°46'1010.3
2017-Feb-19 00:33N 51°27' E 003°33'1111.0
2017-Feb-18 23:34N 51°36' E 003°23'1211.8
2017-Feb-18 22:33N 51°45' E 003°11'10 8.9
2017-Feb-18 21:29N 51°47' E 002°55'32 7.4
2017-Feb-18 17:14N 52°13' E 002°27'4110.4
2017-Feb-18 13:21N 52°53' E 002°19'910.8
2017-Feb-18 12:33N 52°59' E 002°08'1312.5
2017-Feb-18 11:33N 53°06' E 001°51'1212.2
2017-Feb-18 10:33N 53°10' E 001°32'1514.2
2017-Feb-18 09:29N 53°17' E 001°09'33 3.0
2017-Feb-17 22:28N 53°32' E 000°19'1212.7
2017-Feb-17 21:33N 53°35' E 000°00'1211.5
2017-Feb-17 20:33N 53°43' W 000°15'2 1.6
2017-Feb-17 19:30N 53°45' W 000°16'0 0.0
2017-Feb-17 18:33N 53°45' W 000°16'0 0.0
2017-Feb-17 17:21N 53°45' W 000°16'0 0.0
2017-Feb-17 16:33N 53°45' W 000°16'0 0.0
2017-Feb-17 15:30N 53°45' W 000°16'0 0.3
2017-Feb-17 14:33N 53°45' W 000°15'0 0.0
2017-Feb-17 13:30N 53°45' W 000°15'0 0.0
2017-Feb-17 12:30N 53°45' W 000°15'0 0.0
2017-Feb-17 11:03N 53°45' W 000°15'0 0.0
2017-Feb-17 10:33N 53°45' W 000°15'0 0.0
2017-Feb-17 07:27N 53°45' W 000°15'0 0.0
2017-Feb-17 06:33N 53°45' W 000°15'0 0.0
2017-Feb-17 05:27N 53°45' W 000°15'0 0.0
2017-Feb-17 04:24N 53°45' W 000°15'0 0.0
2017-Feb-17 03:24N 53°45' W 000°15'0 0.0
2017-Feb-17 02:33N 53°45' W 000°15'0 0.0
2017-Feb-17 01:27N 53°45' W 000°15'0 0.0
2017-Feb-17 00:33N 53°45' W 000°15'0 0.0
2017-Feb-16 23:30N 53°45' W 000°15'0 0.0
2017-Feb-16 22:33N 53°45' W 000°15'0 0.0
2017-Feb-16 21:33N 53°45' W 000°15'1 0.7
2017-Feb-16 20:34N 53°44' W 000°17'1110.6
2017-Feb-16 19:33N 53°37' W 000°04'26410.5
2017-Feb-15 18:28N 54°12' E 007°20'1713.3
2017-Feb-15 17:09N 54°07' E 007°48'813.4
2017-Feb-15 16:33N 54°03' E 008°00'1412.9
2017-Feb-15 15:31N 53°60' E 008°22'1212.3
2017-Feb-15 14:34N 53°55' E 008°41'10 9.9
2017-Feb-15 13:34N 53°51' E 008°56'8 8.0
2017-Feb-15 12:33N 53°54' E 009°09'1 0.9
2017-Feb-15 11:33N 53°54' E 009°10'7 6.6
2017-Feb-15 10:33N 53°59' E 009°17'4 4.3
2017-Feb-15 09:33N 54°04' E 009°19'47 6.7
2017-Feb-15 02:33N 54°32' E 010°24'1211.7
2017-Feb-15 01:34N 54°35' E 010°43'1313.2
2017-Feb-15 00:33N 54°36' E 011°05'1313.2
2017-Feb-14 23:34N 54°32' E 011°27'1313.2
2017-Feb-14 22:34N 54°26' E 011°48'1212.4
2017-Feb-14 21:34N 54°28' E 012°09'1212.1
2017-Feb-14 20:34N 54°39' E 012°17'1312.9
2017-Feb-14 19:34N 54°45' E 012°36'1312.8
2017-Feb-14 18:33N 54°51' E 012°57'1312.9
2017-Feb-14 17:34N 54°55' E 013°18'1313.2
2017-Feb-14 16:34N 54°59' E 013°39'1313.3
2017-Feb-14 15:33N 55°04' E 014°01'1312.7
2017-Feb-14 14:32N 55°14' E 014°16'1313.0
2017-Feb-14 13:33N 55°24' E 014°30'1312.7
2017-Feb-14 12:32N 55°32' E 014°48'1313.1
2017-Feb-14 11:33N 55°38' E 015°08'  
Track history (hours):
 
Tides and Currents Weather Stations Pressure Air Temp Water Temp Dewpoint Dewpoint Depression Visibility Wind Speed Wind Dir Waves Ship Positions

Johann Essberger

Last reported at 2017-Feb-24 07:13 UTC. Time now 2017-Feb-25 15:54 UTC.
Position N 54°33' W 000°27'.

Length 98 m; draft 7.2 m.

Type: Ship (hazmat cat B). MMSI: 255804460.

Date/timePositionNaut miles runAvg speedWind from/ knotsBaromVisibWave heightAir tempDewpointWater temp
2017-Feb-24 07:13N 54°33' W 000°27'811.6
2017-Feb-24 06:33N 54°27' W 000°17'1111.3
2017-Feb-24 05:33N 54°20' W 000°03'1110.7
2017-Feb-24 04:33N 54°12' E 000°10'10 9.9
2017-Feb-24 03:33N 54°05' E 000°22'67 9.4
2017-Feb-23 20:23N 53°10' E 001°29'6 7.2
2017-Feb-23 19:30N 53°09' E 001°39'7 5.1
2017-Feb-23 18:09N 53°07' E 001°50'97 7.6
2017-Feb-23 05:30N 51°44' E 003°13'10 9.9
2017-Feb-23 04:33N 51°37' E 003°22'1212.1
2017-Feb-23 03:33N 51°27' E 003°33'1110.8
2017-Feb-23 02:33N 51°21' E 003°48'9 9.4
2017-Feb-23 01:33N 51°23' E 004°02'10 9.7
2017-Feb-23 00:33N 51°19' E 004°16'3 3.2
2017-Feb-22 23:33N 51°16' E 004°14'1 0.0
2017-Feb-22 04:26N 51°16' E 004°13'0 0.0
2017-Feb-21 22:31N 51°16' E 004°13'2 1.6
2017-Feb-21 21:25N 51°16' E 004°16'0 0.0
2017-Feb-21 20:25N 51°16' E 004°16'0 0.0
2017-Feb-21 19:31N 51°16' E 004°16'0 0.0
2017-Feb-21 18:31N 51°16' E 004°16'0 0.0
2017-Feb-21 17:28N 51°16' E 004°16'0 0.0
2017-Feb-21 16:31N 51°16' E 004°16'0 0.0
2017-Feb-21 15:19N 51°16' E 004°16'0 0.0
2017-Feb-21 14:25N 51°16' E 004°16'0 0.0
2017-Feb-21 13:31N 51°16' E 004°16'0 0.0
2017-Feb-21 12:31N 51°16' E 004°16'0 0.0
2017-Feb-21 11:31N 51°16' E 004°16'0 0.0
2017-Feb-21 10:31N 51°16' E 004°16'0 0.0
2017-Feb-21 09:31N 51°16' E 004°16'0 0.0
2017-Feb-21 08:31N 51°16' E 004°16'0 0.0
2017-Feb-21 07:28N 51°16' E 004°16'0 0.0
2017-Feb-21 06:28N 51°16' E 004°16'0 0.0
2017-Feb-21 05:25N 51°16' E 004°16'0 0.0
2017-Feb-21 04:33N 51°16' E 004°16'0 0.0
2017-Feb-21 03:33N 51°16' E 004°16'0 0.0
2017-Feb-21 02:33N 51°16' E 004°16'0 0.0
2017-Feb-21 01:33N 51°16' E 004°16'0 0.0
2017-Feb-21 00:33N 51°16' E 004°16'0 0.0
2017-Feb-20 13:29N 51°16' E 004°16'0 0.0
2017-Feb-20 12:05N 51°16' E 004°16'0 0.0
2017-Feb-19 06:33N 51°16' E 004°16'1 0.8
2017-Feb-19 05:33N 51°16' E 004°15'1 0.6
2017-Feb-19 04:33N 51°17' E 004°15'7 7.3
2017-Feb-19 03:32N 51°24' E 004°12'8 8.6
2017-Feb-19 02:33N 51°26' E 003°59'9 8.8
2017-Feb-19 01:33N 51°21' E 003°46'1010.3
2017-Feb-19 00:33N 51°27' E 003°33'1111.0
2017-Feb-18 23:34N 51°36' E 003°23'1211.8
2017-Feb-18 22:33N 51°45' E 003°11'10 8.9
2017-Feb-18 21:29N 51°47' E 002°55'32 7.4
2017-Feb-18 17:14N 52°13' E 002°27'4110.4
2017-Feb-18 13:21N 52°53' E 002°19'910.8
2017-Feb-18 12:33N 52°59' E 002°08'1312.5
2017-Feb-18 11:33N 53°06' E 001°51'1212.2
2017-Feb-18 10:33N 53°10' E 001°32'1514.2
2017-Feb-18 09:29N 53°17' E 001°09'33 3.0
2017-Feb-17 22:28N 53°32' E 000°19'1212.7
2017-Feb-17 21:33N 53°35' E 000°00'1211.5
2017-Feb-17 20:33N 53°43' W 000°15'2 1.6
2017-Feb-17 19:30N 53°45' W 000°16'0 0.0
2017-Feb-17 18:33N 53°45' W 000°16'0 0.0
2017-Feb-17 17:21N 53°45' W 000°16'0 0.0
2017-Feb-17 16:33N 53°45' W 000°16'0 0.0
2017-Feb-17 15:30N 53°45' W 000°16'0 0.3
2017-Feb-17 14:33N 53°45' W 000°15'0 0.0
2017-Feb-17 13:30N 53°45' W 000°15'0 0.0
2017-Feb-17 12:30N 53°45' W 000°15'0 0.0
2017-Feb-17 11:03N 53°45' W 000°15'0 0.0
2017-Feb-17 10:33N 53°45' W 000°15'0 0.0
2017-Feb-17 07:27N 53°45' W 000°15'0 0.0
2017-Feb-17 06:33N 53°45' W 000°15'0 0.0
2017-Feb-17 05:27N 53°45' W 000°15'0 0.0
2017-Feb-17 04:24N 53°45' W 000°15'0 0.0
2017-Feb-17 03:24N 53°45' W 000°15'0 0.0
2017-Feb-17 02:33N 53°45' W 000°15'0 0.0
2017-Feb-17 01:27N 53°45' W 000°15'0 0.0
2017-Feb-17 00:33N 53°45' W 000°15'0 0.0
2017-Feb-16 23:30N 53°45' W 000°15'0 0.0
2017-Feb-16 22:33N 53°45' W 000°15'0 0.0
2017-Feb-16 21:33N 53°45' W 000°15'1 0.7
2017-Feb-16 20:34N 53°44' W 000°17'1110.6
2017-Feb-16 19:33N 53°37' W 000°04'26410.5
2017-Feb-15 18:28N 54°12' E 007°20'1713.3
2017-Feb-15 17:09N 54°07' E 007°48'813.4
2017-Feb-15 16:33N 54°03' E 008°00'1412.9
2017-Feb-15 15:31N 53°60' E 008°22'1212.3
2017-Feb-15 14:34N 53°55' E 008°41'10 9.9
2017-Feb-15 13:34N 53°51' E 008°56'8 8.0
2017-Feb-15 12:33N 53°54' E 009°09'1 0.9
2017-Feb-15 11:33N 53°54' E 009°10'7 6.6
2017-Feb-15 10:33N 53°59' E 009°17'4 4.3
2017-Feb-15 09:33N 54°04' E 009°19'47 6.7
2017-Feb-15 02:33N 54°32' E 010°24'1211.7
2017-Feb-15 01:34N 54°35' E 010°43'1313.2
2017-Feb-15 00:33N 54°36' E 011°05'1313.2
2017-Feb-14 23:34N 54°32' E 011°27'1313.2
2017-Feb-14 22:34N 54°26' E 011°48'1212.4
2017-Feb-14 21:34N 54°28' E 012°09'1212.1
2017-Feb-14 20:34N 54°39' E 012°17'1312.9
2017-Feb-14 19:34N 54°45' E 012°36'1312.8
2017-Feb-14 18:33N 54°51' E 012°57'1312.9
2017-Feb-14 17:34N 54°55' E 013°18'1313.2
2017-Feb-14 16:34N 54°59' E 013°39'1313.3
2017-Feb-14 15:33N 55°04' E 014°01'1312.7
2017-Feb-14 14:32N 55°14' E 014°16'1313.0
2017-Feb-14 13:33N 55°24' E 014°30'1312.7
2017-Feb-14 12:32N 55°32' E 014°48'1313.1
2017-Feb-14 11:33N 55°38' E 015°08'  

Dump ship's entire track history